| Date | Time | Temp. (oF) | Dew Point (oF) | Rel. Hum. (%) | Press. (in.) | Wind Dir. (deg.) | Wind Speed (mph) | Hourly Rainfall (i n.) |
|
|---|---|---|---|---|---|---|---|---|---|
| 1 | 10/08 | 24:00 | 43 | 37 | 81 | 30.58 | 350 | 0 | 0.00 |
| 2 | 10/07 | 23:00 | 44 | 38 | 81 | 30.58 | 350 | 0 | 0.00 |
| 3 | 10/07 | 22:00 | 45 | 38 | 79 | 30.59 | 350 | 0 | 0.00 |
| 4 | 10/07 | 21:00 | 46 | 38 | 75 | 30.58 | 350 | 0 | 0.00 |
| 5 | 10/07 | 20:00 | 48 | 38 | 70 | 30.57 | 350 | 0 | 0.00 |
| 6 | 10/07 | 19:00 | 51 | 37 | 59 | 30.59 | 350 | 0 | 0.00 |
| 7 | 10/07 | 18:00 | 55 | 35 | 47 | 30.63 | 350 | 1 | 0.00 |
| 8 | 10/07 | 17:00 | 55 | 32 | 42 | 30.63 | 310 | 6 | 0.00 |
| 9 | 10/07 | 16:00 | 56 | 33 | 43 | 30.60 | 10 | 0 | 0.00 |
| 10 | 10/07 | 15:00 | 55 | 33 | 45 | 30.57 | 350 | 1 | 0.00 |
| 11 | 10/07 | 14:00 | 54 | 33 | 45 | 30.56 | 290 | 7 | 0.00 |
| 12 | 10/07 | 13:00 | 53 | 33 | 48 | 30.57 | 10 | 1 | 0.00 |
| 13 | 10/07 | 12:00 | 50 | 33 | 52 | 30.56 | 50 | 4 | 0.00 |
| 14 | 10/07 | 11:00 | 49 | 32 | 53 | 30.56 | 270 | 10 | 0.00 |
| 15 | 10/07 | 10:00 | 46 | 32 | 58 | 30.56 | 100 | 9 | 0.00 |
| 16 | 10/07 | 09:00 | 45 | 31 | 59 | 30.54 | 330 | 2 | 0.00 |
| 17 | 10/07 | 08:00 | 43 | 34 | 72 | 30.52 | 360 | 0 | 0.00 |
| 18 | 10/07 | 07:00 | 43 | 32 | 65 | 30.50 | 360 | 1 | 0.00 |
| 19 | 10/07 | 06:00 | 44 | 32 | 64 | 30.47 | 360 | 2 | 0.00 |
| 20 | 10/07 | 05:00 | 44 | 33 | 66 | 30.46 | 360 | 1 | 0.00 |
| 21 | 10/07 | 04:00 | 46 | 34 | 65 | 30.44 | 340 | 4 | 0.00 |
| 22 | 10/07 | 03:00 | 48 | 38 | 69 | 30.43 | 10 | 1 | 0.00 |
| 23 | 10/07 | 02:00 | 49 | 38 | 66 | 30.42 | 10 | 2 | 0.00 |
| 24 | 10/07 | 01:00 | 51 | 37 | 60 | 30.44 | 10 | 0 | 0.00 |